sensor_id;sensor_type;location;lat;lon;timestamp;pressure;altitude;pressure_sealevel;temperature;humidity
37792;BME280;29527;55.766;37.570;2023-03-29T00:00:58;98961.06;;;6.85;61.84
37792;BME280;29527;55.766;37.570;2023-03-29T00:03:25;98943.88;;;6.78;61.81
37792;BME280;29527;55.766;37.570;2023-03-29T00:05:51;98968.69;;;6.89;61.85
37792;BME280;29527;55.766;37.570;2023-03-29T00:08:22;98955.38;;;6.89;62.03
37792;BME280;29527;55.766;37.570;2023-03-29T00:10:49;98960.09;;;6.86;62.18
37792;BME280;29527;55.766;37.570;2023-03-29T00:13:16;98950.66;;;6.82;62.22
37792;BME280;29527;55.766;37.570;2023-03-29T00:15:42;98937.06;;;6.96;61.32
37792;BME280;29527;55.766;37.570;2023-03-29T00:18:07;98941.47;;;6.86;61.87
37792;BME280;29527;55.766;37.570;2023-03-29T00:20:33;98948.09;;;7.03;61.42
37792;BME280;29527;55.766;37.570;2023-03-29T00:22:58;98942.16;;;7.11;60.74
37792;BME280;29527;55.766;37.570;2023-03-29T00:25:24;98938.41;;;7.02;61.31
37792;BME280;29527;55.766;37.570;2023-03-29T00:27:49;98937.34;;;7.04;60.86
37792;BME280;29527;55.766;37.570;2023-03-29T00:30:15;98942.63;;;7.16;60.32
37792;BME280;29527;55.766;37.570;2023-03-29T00:32:41;98935.59;;;7.15;60.45
37792;BME280;29527;55.766;37.570;2023-03-29T00:35:07;98925.66;;;7.28;59.91
37792;BME280;29527;55.766;37.570;2023-03-29T00:37:33;98927.09;;;7.32;59.81
37792;BME280;29527;55.766;37.570;2023-03-29T00:39:59;98924.22;;;7.24;59.87
37792;BME280;29527;55.766;37.570;2023-03-29T00:42:25;98920.81;;;7.22;59.60
37792;BME280;29527;55.766;37.570;2023-03-29T00:45:02;98921.63;;;7.34;59.41
37792;BME280;29527;55.766;37.570;2023-03-29T00:47:47;98917.97;;;7.46;59.31
37792;BME280;29527;55.766;37.570;2023-03-29T00:50:26;98918.25;;;7.32;59.32
37792;BME280;29527;55.766;37.570;2023-03-29T00:53:11;98912.34;;;7.28;59.34
37792;BME280;29527;55.766;37.570;2023-03-29T00:55:44;98932.44;;;7.32;59.08
37792;BME280;29527;55.766;37.570;2023-03-29T00:58:15;98929.41;;;7.37;59.15
37792;BME280;29527;55.766;37.570;2023-03-29T01:01:05;98923.56;;;7.32;59.08
37792;BME280;29527;55.766;37.570;2023-03-29T01:03:39;98928.34;;;7.17;59.62
37792;BME280;29527;55.766;37.570;2023-03-29T01:06:12;98898.59;;;7.12;59.53
37792;BME280;29527;55.766;37.570;2023-03-29T01:08:42;98923.28;;;7.14;59.47
37792;BME280;29527;55.766;37.570;2023-03-29T01:11:24;98914.66;;;7.10;60.02
37792;BME280;29527;55.766;37.570;2023-03-29T01:14:00;98907.81;;;7.08;59.58
37792;BME280;29527;55.766;37.570;2023-03-29T01:16:29;98888.75;;;6.80;60.22
37792;BME280;29527;55.766;37.570;2023-03-29T01:18:56;98925.47;;;6.97;60.03
37792;BME280;29527;55.766;37.570;2023-03-29T01:26:42;98903.50;;;7.28;59.13
37792;BME280;29527;55.766;37.570;2023-03-29T01:29:23;98891.78;;;7.19;59.54
37792;BME280;29527;55.766;37.570;2023-03-29T01:31:59;98893.88;;;7.15;59.40
37792;BME280;29527;55.766;37.570;2023-03-29T01:34:40;98887.22;;;7.10;59.79
37792;BME280;29527;55.766;37.570;2023-03-29T01:37:21;98892.34;;;7.01;59.96
37792;BME280;29527;55.766;37.570;2023-03-29T01:39:50;98871.41;;;6.97;59.80
37792;BME280;29527;55.766;37.570;2023-03-29T01:42:31;98873.25;;;6.85;60.37
37792;BME280;29527;55.766;37.570;2023-03-29T01:45:13;98872.38;;;6.84;60.52
37792;BME280;29527;55.766;37.570;2023-03-29T01:47:58;98882.56;;;6.91;60.38
37792;BME280;29527;55.766;37.570;2023-03-29T01:50:41;98874.38;;;7.15;59.49
37792;BME280;29527;55.766;37.570;2023-03-29T01:53:20;98837.78;;;6.84;59.90
37792;BME280;29527;55.766;37.570;2023-03-29T01:55:53;98884.69;;;7.08;59.86
37792;BME280;29527;55.766;37.570;2023-03-29T01:58:23;98858.94;;;6.97;60.04
37792;BME280;29527;55.766;37.570;2023-03-29T02:00:51;98867.38;;;7.14;59.38
37792;BME280;29527;55.766;37.570;2023-03-29T02:03:22;98884.81;;;7.07;60.04
37792;BME280;29527;55.766;37.570;2023-03-29T02:05:51;98860.00;;;7.06;59.68
37792;BME280;29527;55.766;37.570;2023-03-29T02:08:18;98860.81;;;7.18;59.53
37792;BME280;29527;55.766;37.570;2023-03-29T02:10:45;98851.31;;;7.04;59.91
37792;BME280;29527;55.766;37.570;2023-03-29T02:13:11;98853.38;;;7.00;60.15
37792;BME280;29527;55.766;37.570;2023-03-29T02:15:37;98821.94;;;6.94;59.74
37792;BME280;29527;55.766;37.570;2023-03-29T02:18:04;98841.28;;;6.96;60.43
37792;BME280;29527;55.766;37.570;2023-03-29T02:20:39;98847.19;;;7.00;60.48
37792;BME280;29527;55.766;37.570;2023-03-29T02:23:12;98850.72;;;7.00;60.19
37792;BME280;29527;55.766;37.570;2023-03-29T02:25:40;98837.31;;;6.91;60.33
37792;BME280;29527;55.766;37.570;2023-03-29T02:28:07;98846.28;;;6.89;60.63
37792;BME280;29527;55.766;37.570;2023-03-29T02:30:41;98837.19;;;6.92;60.61
37792;BME280;29527;55.766;37.570;2023-03-29T02:33:15;98832.56;;;6.94;60.42
37792;BME280;29527;55.766;37.570;2023-03-29T02:35:59;98811.03;;;6.97;60.09
37792;BME280;29527;55.766;37.570;2023-03-29T02:38:26;98825.81;;;7.01;59.79
37792;BME280;29527;55.766;37.570;2023-03-29T02:40:55;98806.75;;;6.73;60.59
37792;BME280;29527;55.766;37.570;2023-03-29T02:43:23;98831.03;;;6.80;61.19
37792;BME280;29527;55.766;37.570;2023-03-29T02:45:50;98817.63;;;6.82;61.00
37792;BME280;29527;55.766;37.570;2023-03-29T02:48:19;98810.19;;;6.97;60.29
37792;BME280;29527;55.766;37.570;2023-03-29T02:50:48;98836.91;;;7.07;60.08
37792;BME280;29527;55.766;37.570;2023-03-29T02:53:17;98819.00;;;7.09;59.75
37792;BME280;29527;55.766;37.570;2023-03-29T02:55:44;98815.06;;;6.92;60.27
37792;BME280;29527;55.766;37.570;2023-03-29T02:58:12;98819.66;;;6.89;60.38
37792;BME280;29527;55.766;37.570;2023-03-29T03:00:41;98814.09;;;6.93;60.40
37792;BME280;29527;55.766;37.570;2023-03-29T03:03:09;98823.38;;;6.98;60.27
37792;BME280;29527;55.766;37.570;2023-03-29T03:05:36;98809.13;;;6.99;60.30
37792;BME280;29527;55.766;37.570;2023-03-29T03:08:03;98806.97;;;6.82;61.04
37792;BME280;29527;55.766;37.570;2023-03-29T03:10:30;98809.25;;;6.86;60.80
37792;BME280;29527;55.766;37.570;2023-03-29T03:12:57;98800.19;;;6.89;60.59
37792;BME280;29527;55.766;37.570;2023-03-29T03:15:22;98814.09;;;6.93;60.20
37792;BME280;29527;55.766;37.570;2023-03-29T03:17:48;98799.47;;;6.87;60.97
37792;BME280;29527;55.766;37.570;2023-03-29T03:20:13;98801.34;;;7.08;59.81
37792;BME280;29527;55.766;37.570;2023-03-29T03:22:44;98800.38;;;7.09;59.99
37792;BME280;29527;55.766;37.570;2023-03-29T03:25:17;98805.50;;;7.22;59.61
37792;BME280;29527;55.766;37.570;2023-03-29T03:27:45;98789.53;;;7.22;59.54
37792;BME280;29527;55.766;37.570;2023-03-29T03:30:11;98794.00;;;7.21;59.51
37792;BME280;29527;55.766;37.570;2023-03-29T03:32:37;98799.28;;;7.32;59.10
37792;BME280;29527;55.766;37.570;2023-03-29T03:35:03;98792.13;;;7.33;59.01
37792;BME280;29527;55.766;37.570;2023-03-29T03:37:30;98768.16;;;7.12;59.05
37792;BME280;29527;55.766;37.570;2023-03-29T03:39:56;98790.38;;;7.22;59.32
37792;BME280;29527;55.766;37.570;2023-03-29T03:42:22;98785.78;;;7.24;59.18
37792;BME280;29527;55.766;37.570;2023-03-29T03:44:48;98766.84;;;7.06;59.26
37792;BME280;29527;55.766;37.570;2023-03-29T03:47:14;98767.44;;;7.10;59.05
37792;BME280;29527;55.766;37.570;2023-03-29T03:49:40;98770.44;;;7.16;59.59
37792;BME280;29527;55.766;37.570;2023-03-29T03:52:06;98774.66;;;7.19;59.55
37792;BME280;29527;55.766;37.570;2023-03-29T03:54:33;98758.81;;;7.17;59.11
37792;BME280;29527;55.766;37.570;2023-03-29T03:56:58;98781.09;;;7.38;59.11
37792;BME280;29527;55.766;37.570;2023-03-29T03:59:24;98787.38;;;7.48;58.86
37792;BME280;29527;55.766;37.570;2023-03-29T04:01:49;98780.31;;;7.47;58.87
37792;BME280;29527;55.766;37.570;2023-03-29T04:04:15;98770.84;;;7.54;58.64
37792;BME280;29527;55.766;37.570;2023-03-29T04:06:41;98778.13;;;7.52;58.60
37792;BME280;29527;55.766;37.570;2023-03-29T04:09:08;98773.25;;;7.57;58.11
37792;BME280;29527;55.766;37.570;2023-03-29T04:11:34;98791.44;;;7.73;57.97
37792;BME280;29527;55.766;37.570;2023-03-29T04:14:00;98738.09;;;7.64;57.91
37792;BME280;29527;55.766;37.570;2023-03-29T04:16:26;98753.09;;;7.65;57.91
37792;BME280;29527;55.766;37.570;2023-03-29T04:18:52;98784.19;;;7.85;57.47
37792;BME280;29527;55.766;37.570;2023-03-29T04:21:17;98764.56;;;7.86;57.07
37792;BME280;29527;55.766;37.570;2023-03-29T04:23:43;98744.31;;;7.74;57.19
37792;BME280;29527;55.766;37.570;2023-03-29T04:26:11;98761.63;;;7.89;57.02
37792;BME280;29527;55.766;37.570;2023-03-29T04:28:38;98789.91;;;8.02;57.12
37792;BME280;29527;55.766;37.570;2023-03-29T04:31:03;98747.53;;;7.99;56.80
37792;BME280;29527;55.766;37.570;2023-03-29T04:33:30;98737.97;;;7.96;57.00
37792;BME280;29527;55.766;37.570;2023-03-29T04:35:55;98749.22;;;8.00;56.93
37792;BME280;29527;55.766;37.570;2023-03-29T04:38:21;98764.88;;;8.24;56.09
37792;BME280;29527;55.766;37.570;2023-03-29T04:40:49;98751.97;;;8.29;55.87
37792;BME280;29527;55.766;37.570;2023-03-29T04:43:15;98744.53;;;8.33;55.74
37792;BME280;29527;55.766;37.570;2023-03-29T04:45:40;98764.06;;;8.43;55.30
37792;BME280;29527;55.766;37.570;2023-03-29T04:48:06;98751.84;;;8.31;55.64
37792;BME280;29527;55.766;37.570;2023-03-29T04:50:31;98756.06;;;8.33;55.63
37792;BME280;29527;55.766;37.570;2023-03-29T04:52:57;98751.81;;;8.21;55.84
37792;BME280;29527;55.766;37.570;2023-03-29T04:55:24;98742.78;;;8.12;56.28
37792;BME280;29527;55.766;37.570;2023-03-29T04:57:51;98750.13;;;8.20;55.99
37792;BME280;29527;55.766;37.570;2023-03-29T05:00:18;98746.38;;;8.32;55.50
37792;BME280;29527;55.766;37.570;2023-03-29T05:02:45;98756.31;;;8.30;55.64
37792;BME280;29527;55.766;37.570;2023-03-29T05:05:12;98743.97;;;8.29;55.46
37792;BME280;29527;55.766;37.570;2023-03-29T05:07:38;98743.16;;;8.39;55.21
37792;BME280;29527;55.766;37.570;2023-03-29T05:10:04;98756.28;;;8.52;55.16
37792;BME280;29527;55.766;37.570;2023-03-29T05:12:31;98753.63;;;8.61;54.73
37792;BME280;29527;55.766;37.570;2023-03-29T05:14:56;98751.69;;;8.73;54.34
37792;BME280;29527;55.766;37.570;2023-03-29T05:17:22;98756.16;;;8.73;53.97
37792;BME280;29527;55.766;37.570;2023-03-29T05:19:48;98748.59;;;8.68;54.27
37792;BME280;29527;55.766;37.570;2023-03-29T05:22:13;98738.19;;;8.85;54.03
37792;BME280;29527;55.766;37.570;2023-03-29T05:24:39;98759.00;;;8.81;54.21
37792;BME280;29527;55.766;37.570;2023-03-29T05:27:06;98752.69;;;8.82;54.14
37792;BME280;29527;55.766;37.570;2023-03-29T05:29:31;98715.28;;;8.53;54.63
37792;BME280;29527;55.766;37.570;2023-03-29T05:31:57;98752.53;;;8.84;54.33
37792;BME280;29527;55.766;37.570;2023-03-29T05:34:24;98744.25;;;8.97;53.79
37792;BME280;29527;55.766;37.570;2023-03-29T05:36:50;98714.75;;;8.79;54.01
37792;BME280;29527;55.766;37.570;2023-03-29T05:39:17;98753.38;;;9.14;53.07
37792;BME280;29527;55.766;37.570;2023-03-29T05:41:42;98743.66;;;9.13;53.33
37792;BME280;29527;55.766;37.570;2023-03-29T05:44:08;98745.94;;;9.17;53.33
37792;BME280;29527;55.766;37.570;2023-03-29T05:46:33;98756.47;;;9.29;52.85
37792;BME280;29527;55.766;37.570;2023-03-29T05:48:59;98757.25;;;9.59;52.27
37792;BME280;29527;55.766;37.570;2023-03-29T05:51:25;98758.03;;;9.89;51.33
37792;BME280;29527;55.766;37.570;2023-03-29T05:53:51;98764.56;;;10.14;50.71
37792;BME280;29527;55.766;37.570;2023-03-29T05:56:17;98716.84;;;10.10;50.04
37792;BME280;29527;55.766;37.570;2023-03-29T05:58:44;98747.78;;;10.12;50.48
37792;BME280;29527;55.766;37.570;2023-03-29T06:01:12;98777.34;;;10.20;50.16
37792;BME280;29527;55.766;37.570;2023-03-29T06:03:42;98756.41;;;10.06;50.50
37792;BME280;29527;55.766;37.570;2023-03-29T06:06:08;98756.31;;;9.98;50.38
37792;BME280;29527;55.766;37.570;2023-03-29T06:08:34;98744.94;;;9.86;51.05
37792;BME280;29527;55.766;37.570;2023-03-29T06:11:02;98742.13;;;9.87;50.96
37792;BME280;29527;55.766;37.570;2023-03-29T06:13:29;98761.38;;;9.91;51.13
37792;BME280;29527;55.766;37.570;2023-03-29T06:15:55;98747.28;;;9.99;50.38
37792;BME280;29527;55.766;37.570;2023-03-29T06:18:21;98739.72;;;9.84;50.76
37792;BME280;29527;55.766;37.570;2023-03-29T06:20:50;98753.69;;;9.78;51.17
37792;BME280;29527;55.766;37.570;2023-03-29T06:23:16;98736.66;;;9.79;51.08
37792;BME280;29527;55.766;37.570;2023-03-29T06:25:43;98748.91;;;9.82;50.79
37792;BME280;29527;55.766;37.570;2023-03-29T06:28:10;98736.41;;;9.62;51.44
37792;BME280;29527;55.766;37.570;2023-03-29T06:30:36;98739.59;;;9.86;50.55
37792;BME280;29527;55.766;37.570;2023-03-29T06:33:02;98727.75;;;9.88;50.51
37792;BME280;29527;55.766;37.570;2023-03-29T06:35:30;98733.88;;;9.71;51.36
37792;BME280;29527;55.766;37.570;2023-03-29T06:37:56;98726.28;;;9.76;50.95
37792;BME280;29527;55.766;37.570;2023-03-29T06:40:21;98718.63;;;9.91;50.62
37792;BME280;29527;55.766;37.570;2023-03-29T06:42:47;98726.38;;;9.84;50.99
37792;BME280;29527;55.766;37.570;2023-03-29T06:45:13;98720.56;;;9.99;50.29
37792;BME280;29527;55.766;37.570;2023-03-29T06:47:39;98754.03;;;10.03;50.37
37792;BME280;29527;55.766;37.570;2023-03-29T06:50:05;98731.03;;;9.82;51.56
37792;BME280;29527;55.766;37.570;2023-03-29T06:52:32;98734.59;;;9.73;51.98
37792;BME280;29527;55.766;37.570;2023-03-29T06:54:57;98743.19;;;9.67;52.48
37792;BME280;29527;55.766;37.570;2023-03-29T06:57:25;98726.59;;;9.53;52.95
37792;BME280;29527;55.766;37.570;2023-03-29T06:59:51;98698.53;;;9.39;53.63
37792;BME280;29527;55.766;37.570;2023-03-29T07:02:18;98721.00;;;9.37;53.59
37792;BME280;29527;55.766;37.570;2023-03-29T07:04:43;98716.38;;;9.39;54.11
37792;BME280;29527;55.766;37.570;2023-03-29T07:07:09;98738.69;;;9.57;53.69
37792;BME280;29527;55.766;37.570;2023-03-29T07:09:44;98730.00;;;9.36;54.96
37792;BME280;29527;55.766;37.570;2023-03-29T07:12:11;98733.97;;;9.31;55.00
37792;BME280;29527;55.766;37.570;2023-03-29T07:14:36;98731.16;;;9.43;54.28
37792;BME280;29527;55.766;37.570;2023-03-29T07:17:02;98733.25;;;9.29;55.52
37792;BME280;29527;55.766;37.570;2023-03-29T07:19:28;98742.44;;;9.17;55.93
37792;BME280;29527;55.766;37.570;2023-03-29T07:21:54;98686.34;;;9.07;55.85
37792;BME280;29527;55.766;37.570;2023-03-29T07:24:20;98727.91;;;9.29;55.26
37792;BME280;29527;55.766;37.570;2023-03-29T07:26:47;98741.13;;;9.41;55.62
37792;BME280;29527;55.766;37.570;2023-03-29T07:29:14;98751.09;;;9.39;55.16
37792;BME280;29527;55.766;37.570;2023-03-29T07:31:40;98720.75;;;9.30;55.55
37792;BME280;29527;55.766;37.570;2023-03-29T07:34:07;98742.38;;;9.37;55.45
37792;BME280;29527;55.766;37.570;2023-03-29T07:36:39;98742.38;;;9.37;55.26
37792;BME280;29527;55.766;37.570;2023-03-29T07:39:05;98739.03;;;9.25;56.38
37792;BME280;29527;55.766;37.570;2023-03-29T07:41:32;98732.84;;;9.44;56.99
37792;BME280;29527;55.766;37.570;2023-03-29T07:43:58;98739.16;;;9.33;57.30
37792;BME280;29527;55.766;37.570;2023-03-29T07:46:29;98737.19;;;9.45;58.09
37792;BME280;29527;55.766;37.570;2023-03-29T07:48:55;98730.81;;;9.66;57.20
37792;BME280;29527;55.766;37.570;2023-03-29T07:51:21;98734.97;;;9.78;56.72
37792;BME280;29527;55.766;37.570;2023-03-29T07:53:47;98727.03;;;9.96;55.54
37792;BME280;29527;55.766;37.570;2023-03-29T07:56:14;98725.59;;;10.02;55.52
37792;BME280;29527;55.766;37.570;2023-03-29T07:58:40;98733.03;;;10.08;54.18
37792;BME280;29527;55.766;37.570;2023-03-29T08:01:05;98721.53;;;9.98;54.40
37792;BME280;29527;55.766;37.570;2023-03-29T08:03:32;98742.56;;;9.83;55.33
37792;BME280;29527;55.766;37.570;2023-03-29T08:06:01;98715.88;;;9.73;55.56
37792;BME280;29527;55.766;37.570;2023-03-29T08:08:27;98713.34;;;9.71;55.01
37792;BME280;29527;55.766;37.570;2023-03-29T08:10:53;98736.75;;;9.87;55.66
37792;BME280;29527;55.766;37.570;2023-03-29T08:13:18;98731.38;;;9.97;55.65
37792;BME280;29527;55.766;37.570;2023-03-29T08:15:44;98736.22;;;10.22;54.15
37792;BME280;29527;55.766;37.570;2023-03-29T08:18:13;98735.59;;;10.00;56.00
37792;BME280;29527;55.766;37.570;2023-03-29T08:20:38;98730.66;;;10.05;55.44
37792;BME280;29527;55.766;37.570;2023-03-29T08:23:04;98733.50;;;10.03;55.86
37792;BME280;29527;55.766;37.570;2023-03-29T08:25:30;98728.59;;;10.27;54.89
37792;BME280;29527;55.766;37.570;2023-03-29T08:27:56;98731.94;;;10.29;54.97
37792;BME280;29527;55.766;37.570;2023-03-29T08:30:22;98714.50;;;10.25;55.70
37792;BME280;29527;55.766;37.570;2023-03-29T08:32:47;98729.06;;;10.50;54.14
37792;BME280;29527;55.766;37.570;2023-03-29T08:35:13;98713.75;;;10.42;54.54
37792;BME280;29527;55.766;37.570;2023-03-29T08:37:39;98720.88;;;10.52;55.09
37792;BME280;29527;55.766;37.570;2023-03-29T08:40:05;98709.47;;;10.68;54.19
37792;BME280;29527;55.766;37.570;2023-03-29T08:42:52;98720.72;;;10.71;54.13
37792;BME280;29527;55.766;37.570;2023-03-29T08:45:54;98722.72;;;10.69;54.63
37792;BME280;29527;55.766;37.570;2023-03-29T08:48:35;98723.34;;;10.63;54.60
37792;BME280;29527;55.766;37.570;2023-03-29T08:51:16;98726.75;;;10.55;54.45
37792;BME280;29527;55.766;37.570;2023-03-29T08:53:53;98711.47;;;10.47;55.12
37792;BME280;29527;55.766;37.570;2023-03-29T08:56:26;98726.53;;;10.39;56.53
37792;BME280;29527;55.766;37.570;2023-03-29T08:58:55;98713.53;;;9.98;58.79
37792;BME280;29527;55.766;37.570;2023-03-29T09:01:21;98690.22;;;9.80;59.11
37792;BME280;29527;55.766;37.570;2023-03-29T09:06:20;98720.16;;;9.94;58.05
37792;BME280;29527;55.766;37.570;2023-03-29T09:08:48;98713.97;;;9.93;57.95
37792;BME280;29527;55.766;37.570;2023-03-29T09:17:44;98704.16;;;10.12;58.22
37792;BME280;29527;55.766;37.570;2023-03-29T09:20:21;98721.41;;;10.55;56.82
37792;BME280;29527;55.766;37.570;2023-03-29T09:22:51;98693.75;;;10.37;57.79
37792;BME280;29527;55.766;37.570;2023-03-29T09:25:24;98721.03;;;10.68;56.81
37792;BME280;29527;55.766;37.570;2023-03-29T09:28:03;98718.97;;;10.34;58.08
37792;BME280;29527;55.766;37.570;2023-03-29T09:30:42;98709.97;;;10.63;56.51
37792;BME280;29527;55.766;37.570;2023-03-29T09:33:51;98724.91;;;10.28;58.10
37792;BME280;29527;55.766;37.570;2023-03-29T09:38:49;98714.03;;;9.73;61.08
37792;BME280;29527;55.766;37.570;2023-03-29T09:41:26;98679.94;;;9.47;61.91
37792;BME280;29527;55.766;37.570;2023-03-29T09:43:57;98746.31;;;9.52;62.64
37792;BME280;29527;55.766;37.570;2023-03-29T09:46:43;98711.13;;;9.67;61.86
37792;BME280;29527;55.766;37.570;2023-03-29T09:49:14;98716.88;;;9.62;62.38
37792;BME280;29527;55.766;37.570;2023-03-29T09:51:42;98712.25;;;9.64;62.56
37792;BME280;29527;55.766;37.570;2023-03-29T09:54:10;98705.34;;;9.61;62.33
37792;BME280;29527;55.766;37.570;2023-03-29T09:56:37;98723.66;;;9.56;63.42
37792;BME280;29527;55.766;37.570;2023-03-29T09:59:03;98727.91;;;9.49;63.34
37792;BME280;29527;55.766;37.570;2023-03-29T10:01:36;98708.19;;;9.50;63.08
37792;BME280;29527;55.766;37.570;2023-03-29T10:04:05;98699.63;;;9.46;64.07
37792;BME280;29527;55.766;37.570;2023-03-29T10:06:32;98713.81;;;9.57;62.40
37792;BME280;29527;55.766;37.570;2023-03-29T10:08:58;98708.31;;;9.58;63.08
37792;BME280;29527;55.766;37.570;2023-03-29T10:11:37;98704.09;;;9.66;63.42
37792;BME280;29527;55.766;37.570;2023-03-29T10:14:16;98715.00;;;9.72;62.47
37792;BME280;29527;55.766;37.570;2023-03-29T10:16:43;98710.84;;;9.60;63.92
37792;BME280;29527;55.766;37.570;2023-03-29T10:19:22;98690.97;;;9.72;63.72
37792;BME280;29527;55.766;37.570;2023-03-29T10:21:50;98738.25;;;9.62;64.48
37792;BME280;29527;55.766;37.570;2023-03-29T10:24:24;98719.25;;;9.75;63.87
37792;BME280;29527;55.766;37.570;2023-03-29T10:26:52;98748.06;;;9.81;63.74
37792;BME280;29527;55.766;37.570;2023-03-29T10:29:23;98707.56;;;9.76;63.70
37792;BME280;29527;55.766;37.570;2023-03-29T10:31:49;98695.56;;;9.80;63.44
37792;BME280;29527;55.766;37.570;2023-03-29T10:34:16;98656.16;;;9.54;63.69
37792;BME280;29527;55.766;37.570;2023-03-29T10:36:44;98674.25;;;9.60;63.21
37792;BME280;29527;55.766;37.570;2023-03-29T10:39:15;98693.41;;;9.66;64.19
37792;BME280;29527;55.766;37.570;2023-03-29T10:41:41;98696.81;;;9.48;64.32
37792;BME280;29527;55.766;37.570;2023-03-29T10:44:24;98662.88;;;9.58;63.99
37792;BME280;29527;55.766;37.570;2023-03-29T10:46:50;98675.41;;;9.58;64.87
37792;BME280;29527;55.766;37.570;2023-03-29T10:49:20;98708.84;;;9.72;64.06
37792;BME280;29527;55.766;37.570;2023-03-29T10:51:48;98673.56;;;9.58;63.91
37792;BME280;29527;55.766;37.570;2023-03-29T10:54:17;98680.38;;;9.43;65.41
37792;BME280;29527;55.766;37.570;2023-03-29T10:56:52;98692.91;;;9.32;66.91
37792;BME280;29527;55.766;37.570;2023-03-29T11:04:48;98702.03;;;9.40;66.71
37792;BME280;29527;55.766;37.570;2023-03-29T11:07:31;98697.94;;;9.45;66.32
37792;BME280;29527;55.766;37.570;2023-03-29T11:12:50;98700.81;;;9.24;67.25
37792;BME280;29527;55.766;37.570;2023-03-29T11:15:33;98723.00;;;9.34;66.73
37792;BME280;29527;55.766;37.570;2023-03-29T11:37:37;98702.09;;;8.71;70.05
37792;BME280;29527;55.766;37.570;2023-03-29T11:42:57;98681.88;;;8.58;69.99
37792;BME280;29527;55.766;37.570;2023-03-29T11:45:29;98692.09;;;8.63;70.26
37792;BME280;29527;55.766;37.570;2023-03-29T11:47:58;98698.31;;;8.64;71.04
37792;BME280;29527;55.766;37.570;2023-03-29T11:50:35;98700.97;;;8.73;70.08
37792;BME280;29527;55.766;37.570;2023-03-29T11:53:20;98740.16;;;8.93;69.20
37792;BME280;29527;55.766;37.570;2023-03-29T11:55:48;98701.50;;;8.67;70.51
37792;BME280;29527;55.766;37.570;2023-03-29T11:58:28;98738.19;;;8.75;70.06
37792;BME280;29527;55.766;37.570;2023-03-29T12:00:57;98700.13;;;8.63;71.01
37792;BME280;29527;55.766;37.570;2023-03-29T12:03:49;98698.72;;;8.79;70.13
37792;BME280;29527;55.766;37.570;2023-03-29T12:06:46;98691.00;;;8.66;71.32
37792;BME280;29527;55.766;37.570;2023-03-29T12:09:22;98692.81;;;8.75;70.97
37792;BME280;29527;55.766;37.570;2023-03-29T12:12:16;98705.63;;;8.81;70.89
37792;BME280;29527;55.766;37.570;2023-03-29T12:17:17;98707.03;;;8.95;70.49
37792;BME280;29527;55.766;37.570;2023-03-29T12:20:09;98716.28;;;8.91;70.46
37792;BME280;29527;55.766;37.570;2023-03-29T12:22:36;98700.25;;;8.91;70.33
37792;BME280;29527;55.766;37.570;2023-03-29T12:25:03;98686.50;;;8.76;70.89
37792;BME280;29527;55.766;37.570;2023-03-29T12:27:56;98711.50;;;9.04;70.53
37792;BME280;29527;55.766;37.570;2023-03-29T12:30:31;98702.22;;;9.09;69.59
37792;BME280;29527;55.766;37.570;2023-03-29T12:39:03;98722.19;;;8.95;70.17
37792;BME280;29527;55.766;37.570;2023-03-29T12:41:35;98712.31;;;9.15;69.50
37792;BME280;29527;55.766;37.570;2023-03-29T12:44:02;98735.94;;;9.00;69.89
37792;BME280;29527;55.766;37.570;2023-03-29T12:46:32;98712.38;;;8.95;70.21
37792;BME280;29527;55.766;37.570;2023-03-29T12:49:18;98716.56;;;8.98;70.23
37792;BME280;29527;55.766;37.570;2023-03-29T12:51:47;98750.28;;;8.89;71.07
37792;BME280;29527;55.766;37.570;2023-03-29T12:54:16;98699.56;;;8.79;69.84
37792;BME280;29527;55.766;37.570;2023-03-29T12:57:01;98712.06;;;8.79;70.65
37792;BME280;29527;55.766;37.570;2023-03-29T12:59:44;98714.75;;;8.79;71.03
37792;BME280;29527;55.766;37.570;2023-03-29T13:07:27;98718.53;;;8.76;70.84
37792;BME280;29527;55.766;37.570;2023-03-29T13:09:57;98727.81;;;9.11;68.70
37792;BME280;29527;55.766;37.570;2023-03-29T13:12:40;98727.69;;;8.93;69.92
37792;BME280;29527;55.766;37.570;2023-03-29T13:20:50;98743.69;;;8.93;69.44
37792;BME280;29527;55.766;37.570;2023-03-29T13:34:28;98736.00;;;8.49;70.88
37792;BME280;29527;55.766;37.570;2023-03-29T13:39:30;98735.00;;;8.40;70.03
37792;BME280;29527;55.766;37.570;2023-03-29T13:42:22;98731.91;;;8.35;70.65
37792;BME280;29527;55.766;37.570;2023-03-29T13:44:48;98755.81;;;8.46;70.11
37792;BME280;29527;55.766;37.570;2023-03-29T13:47:26;98755.81;;;8.46;70.38
37792;BME280;29527;55.766;37.570;2023-03-29T13:49:56;98743.91;;;8.51;70.23
37792;BME280;29527;55.766;37.570;2023-03-29T13:52:53;98762.31;;;8.54;69.72
37792;BME280;29527;55.766;37.570;2023-03-29T13:55:30;98768.00;;;8.39;70.79
37792;BME280;29527;55.766;37.570;2023-03-29T13:58:09;98761.56;;;8.42;70.65
37792;BME280;29527;55.766;37.570;2023-03-29T14:00:48;98754.44;;;8.52;69.88
37792;BME280;29527;55.766;37.570;2023-03-29T14:03:17;98776.47;;;8.44;70.90
37792;BME280;29527;55.766;37.570;2023-03-29T14:05:48;98761.41;;;8.43;70.30
37792;BME280;29527;55.766;37.570;2023-03-29T14:08:25;98772.06;;;8.43;70.84
37792;BME280;29527;55.766;37.570;2023-03-29T14:10:52;98766.75;;;8.43;70.85
37792;BME280;29527;55.766;37.570;2023-03-29T14:13:21;98792.66;;;8.53;70.98
37792;BME280;29527;55.766;37.570;2023-03-29T14:15:50;98774.69;;;8.55;70.13
37792;BME280;29527;55.766;37.570;2023-03-29T14:18:20;98816.94;;;8.50;70.87
37792;BME280;29527;55.766;37.570;2023-03-29T14:20:48;98733.44;;;8.28;70.77
37792;BME280;29527;55.766;37.570;2023-03-29T14:23:26;98776.91;;;8.50;70.89
37792;BME280;29527;55.766;37.570;2023-03-29T14:25:52;98779.16;;;8.54;70.11
37792;BME280;29527;55.766;37.570;2023-03-29T14:28:21;98784.19;;;8.47;70.79
37792;BME280;29527;55.766;37.570;2023-03-29T14:30:47;98777.28;;;8.45;70.51
37792;BME280;29527;55.766;37.570;2023-03-29T14:33:26;98777.41;;;8.43;71.17
37792;BME280;29527;55.766;37.570;2023-03-29T14:35:53;98787.09;;;8.35;72.03